sensor_id;sensor_type;location;lat;lon;timestamp;temperature;humidity
57218;DHT22;43078;52.972;6.482;2023-07-28T00:00:16;18.90;99.90
57218;DHT22;43078;52.972;6.482;2023-07-28T00:02:41;18.90;99.90
57218;DHT22;43078;52.972;6.482;2023-07-28T00:05:07;18.90;99.90
57218;DHT22;43078;52.972;6.482;2023-07-28T00:07:33;18.90;99.90
57218;DHT22;43078;52.972;6.482;2023-07-28T00:10:01;18.90;99.90
57218;DHT22;43078;52.972;6.482;2023-07-28T00:12:26;18.90;99.90
57218;DHT22;43078;52.972;6.482;2023-07-28T00:14:52;18.90;99.90
57218;DHT22;43078;52.972;6.482;2023-07-28T00:17:17;18.90;99.90
57218;DHT22;43078;52.972;6.482;2023-07-28T00:19:43;18.90;99.90
57218;DHT22;43078;52.972;6.482;2023-07-28T00:22:09;18.90;99.90
57218;DHT22;43078;52.972;6.482;2023-07-28T00:24:34;18.90;99.90
57218;DHT22;43078;52.972;6.482;2023-07-28T00:27:00;18.90;99.90
57218;DHT22;43078;52.972;6.482;2023-07-28T00:29:25;18.90;99.90
57218;DHT22;43078;52.972;6.482;2023-07-28T00:31:51;18.90;99.90
57218;DHT22;43078;52.972;6.482;2023-07-28T00:34:18;18.90;99.90
57218;DHT22;43078;52.972;6.482;2023-07-28T00:36:43;18.90;99.90
57218;DHT22;43078;52.972;6.482;2023-07-28T00:39:09;18.90;99.90
57218;DHT22;43078;52.972;6.482;2023-07-28T00:41:35;18.90;99.90
57218;DHT22;43078;52.972;6.482;2023-07-28T00:44:00;18.90;99.90
57218;DHT22;43078;52.972;6.482;2023-07-28T00:46:26;18.90;99.90
57218;DHT22;43078;52.972;6.482;2023-07-28T00:48:52;18.90;99.90
57218;DHT22;43078;52.972;6.482;2023-07-28T00:51:18;18.90;99.90
57218;DHT22;43078;52.972;6.482;2023-07-28T00:53:44;18.90;99.90
57218;DHT22;43078;52.972;6.482;2023-07-28T00:56:11;18.90;99.90
57218;DHT22;43078;52.972;6.482;2023-07-28T00:58:37;18.90;99.90
57218;DHT22;43078;52.972;6.482;2023-07-28T01:01:02;18.90;99.90
57218;DHT22;43078;52.972;6.482;2023-07-28T01:03:28;18.90;99.90
57218;DHT22;43078;52.972;6.482;2023-07-28T01:08:39;18.90;99.90
57218;DHT22;43078;52.972;6.482;2023-07-28T01:11:06;18.90;99.90
57218;DHT22;43078;52.972;6.482;2023-07-28T01:13:31;18.90;99.90
57218;DHT22;43078;52.972;6.482;2023-07-28T01:15:57;18.90;99.90
57218;DHT22;43078;52.972;6.482;2023-07-28T01:18:23;18.90;99.90
57218;DHT22;43078;52.972;6.482;2023-07-28T01:20:50;18.90;99.90
57218;DHT22;43078;52.972;6.482;2023-07-28T01:26:06;18.90;99.90
57218;DHT22;43078;52.972;6.482;2023-07-28T01:28:34;18.80;99.90
57218;DHT22;43078;52.972;6.482;2023-07-28T01:31:05;18.90;99.90
57218;DHT22;43078;52.972;6.482;2023-07-28T01:33:31;18.80;99.90
57218;DHT22;43078;52.972;6.482;2023-07-28T01:35:57;18.90;99.90
57218;DHT22;43078;52.972;6.482;2023-07-28T01:38:24;18.80;99.90
57218;DHT22;43078;52.972;6.482;2023-07-28T01:40:50;18.90;99.90
57218;DHT22;43078;52.972;6.482;2023-07-28T01:43:15;18.90;99.90
57218;DHT22;43078;52.972;6.482;2023-07-28T01:45:41;18.80;99.90
57218;DHT22;43078;52.972;6.482;2023-07-28T01:48:06;18.80;99.90
57218;DHT22;43078;52.972;6.482;2023-07-28T01:50:35;18.90;99.90
57218;DHT22;43078;52.972;6.482;2023-07-28T01:53:01;18.80;99.90
57218;DHT22;43078;52.972;6.482;2023-07-28T01:55:30;18.80;99.90
57218;DHT22;43078;52.972;6.482;2023-07-28T01:57:58;18.80;99.90
57218;DHT22;43078;52.972;6.482;2023-07-28T02:00:24;18.80;99.90
57218;DHT22;43078;52.972;6.482;2023-07-28T02:02:50;18.80;99.90
57218;DHT22;43078;52.972;6.482;2023-07-28T02:05:19;18.80;99.90
57218;DHT22;43078;52.972;6.482;2023-07-28T02:07:45;18.80;99.90
57218;DHT22;43078;52.972;6.482;2023-07-28T02:10:11;18.80;99.90
57218;DHT22;43078;52.972;6.482;2023-07-28T02:12:40;18.80;99.90
57218;DHT22;43078;52.972;6.482;2023-07-28T02:15:11;18.80;99.90
57218;DHT22;43078;52.972;6.482;2023-07-28T02:17:37;18.80;99.90
57218;DHT22;43078;52.972;6.482;2023-07-28T02:20:03;18.80;99.90
57218;DHT22;43078;52.972;6.482;2023-07-28T02:22:29;18.80;99.90
57218;DHT22;43078;52.972;6.482;2023-07-28T02:24:55;18.80;99.90
57218;DHT22;43078;52.972;6.482;2023-07-28T02:27:22;18.80;99.90
57218;DHT22;43078;52.972;6.482;2023-07-28T02:29:50;18.80;99.90
57218;DHT22;43078;52.972;6.482;2023-07-28T02:32:15;18.80;99.90
57218;DHT22;43078;52.972;6.482;2023-07-28T02:34:41;18.90;99.90
57218;DHT22;43078;52.972;6.482;2023-07-28T02:37:07;18.80;99.90
57218;DHT22;43078;52.972;6.482;2023-07-28T02:39:32;18.80;99.90
57218;DHT22;43078;52.972;6.482;2023-07-28T02:41:58;18.80;99.90
57218;DHT22;43078;52.972;6.482;2023-07-28T02:44:23;18.80;99.90
57218;DHT22;43078;52.972;6.482;2023-07-28T02:46:49;18.80;99.90
57218;DHT22;43078;52.972;6.482;2023-07-28T02:49:15;18.80;99.90
57218;DHT22;43078;52.972;6.482;2023-07-28T02:51:40;18.80;99.90
57218;DHT22;43078;52.972;6.482;2023-07-28T02:54:07;18.80;99.90
57218;DHT22;43078;52.972;6.482;2023-07-28T02:56:32;18.80;99.90
57218;DHT22;43078;52.972;6.482;2023-07-28T02:59:06;18.80;99.90
57218;DHT22;43078;52.972;6.482;2023-07-28T03:01:31;18.80;99.90
57218;DHT22;43078;52.972;6.482;2023-07-28T03:04:01;18.80;99.90
57218;DHT22;43078;52.972;6.482;2023-07-28T03:06:27;18.80;99.90
57218;DHT22;43078;52.972;6.482;2023-07-28T03:08:53;18.80;99.90
57218;DHT22;43078;52.972;6.482;2023-07-28T03:11:18;18.80;99.90
57218;DHT22;43078;52.972;6.482;2023-07-28T03:13:44;18.80;99.90
57218;DHT22;43078;52.972;6.482;2023-07-28T03:16:09;18.80;99.90
57218;DHT22;43078;52.972;6.482;2023-07-28T03:18:35;18.90;99.90
57218;DHT22;43078;52.972;6.482;2023-07-28T03:21:01;18.80;99.90
57218;DHT22;43078;52.972;6.482;2023-07-28T03:23:27;18.80;99.90
57218;DHT22;43078;52.972;6.482;2023-07-28T03:25:52;18.80;99.90
57218;DHT22;43078;52.972;6.482;2023-07-28T03:28:18;18.80;99.90
57218;DHT22;43078;52.972;6.482;2023-07-28T03:30:44;18.80;99.90
57218;DHT22;43078;52.972;6.482;2023-07-28T03:33:10;18.80;99.90
57218;DHT22;43078;52.972;6.482;2023-07-28T03:35:35;18.80;99.90
57218;DHT22;43078;52.972;6.482;2023-07-28T03:38:01;18.80;99.90
57218;DHT22;43078;52.972;6.482;2023-07-28T03:40:28;18.80;99.90
57218;DHT22;43078;52.972;6.482;2023-07-28T03:42:53;18.80;99.90
57218;DHT22;43078;52.972;6.482;2023-07-28T03:45:19;18.80;99.90
57218;DHT22;43078;52.972;6.482;2023-07-28T03:47:45;18.70;99.90
57218;DHT22;43078;52.972;6.482;2023-07-28T03:50:10;18.70;99.90
57218;DHT22;43078;52.972;6.482;2023-07-28T03:52:36;18.80;99.90
57218;DHT22;43078;52.972;6.482;2023-07-28T03:55:02;18.80;99.90
57218;DHT22;43078;52.972;6.482;2023-07-28T03:57:28;18.70;99.90
57218;DHT22;43078;52.972;6.482;2023-07-28T03:59:53;18.70;99.90
57218;DHT22;43078;52.972;6.482;2023-07-28T04:02:19;18.70;99.90
57218;DHT22;43078;52.972;6.482;2023-07-28T04:04:44;18.70;99.90
57218;DHT22;43078;52.972;6.482;2023-07-28T04:07:10;18.70;99.90
57218;DHT22;43078;52.972;6.482;2023-07-28T04:09:36;18.70;99.90
57218;DHT22;43078;52.972;6.482;2023-07-28T04:12:01;18.70;99.90
57218;DHT22;43078;52.972;6.482;2023-07-28T04:14:27;18.70;99.90
57218;DHT22;43078;52.972;6.482;2023-07-28T04:16:53;18.70;99.90
57218;DHT22;43078;52.972;6.482;2023-07-28T04:19:18;18.70;99.90
57218;DHT22;43078;52.972;6.482;2023-07-28T04:21:44;18.70;99.90
57218;DHT22;43078;52.972;6.482;2023-07-28T04:24:10;18.70;99.90
57218;DHT22;43078;52.972;6.482;2023-07-28T04:26:36;18.70;99.90
57218;DHT22;43078;52.972;6.482;2023-07-28T04:29:02;18.70;99.90
57218;DHT22;43078;52.972;6.482;2023-07-28T04:31:27;18.80;99.90
57218;DHT22;43078;52.972;6.482;2023-07-28T04:33:53;18.70;99.90
57218;DHT22;43078;52.972;6.482;2023-07-28T04:36:19;18.80;99.90
57218;DHT22;43078;52.972;6.482;2023-07-28T04:38:44;18.70;99.90
57218;DHT22;43078;52.972;6.482;2023-07-28T04:41:13;18.80;99.90
57218;DHT22;43078;52.972;6.482;2023-07-28T04:43:38;18.80;99.90
57218;DHT22;43078;52.972;6.482;2023-07-28T04:46:04;18.80;99.90
57218;DHT22;43078;52.972;6.482;2023-07-28T04:48:29;18.70;99.90
57218;DHT22;43078;52.972;6.482;2023-07-28T04:50:55;18.80;99.90
57218;DHT22;43078;52.972;6.482;2023-07-28T04:53:21;18.80;99.90
57218;DHT22;43078;52.972;6.482;2023-07-28T04:55:46;18.80;99.90
57218;DHT22;43078;52.972;6.482;2023-07-28T04:58:12;18.80;99.90
57218;DHT22;43078;52.972;6.482;2023-07-28T05:00:37;18.80;99.90
57218;DHT22;43078;52.972;6.482;2023-07-28T05:03:03;18.80;99.90
57218;DHT22;43078;52.972;6.482;2023-07-28T05:05:29;18.80;99.90
57218;DHT22;43078;52.972;6.482;2023-07-28T05:07:55;18.80;99.90
57218;DHT22;43078;52.972;6.482;2023-07-28T05:10:21;18.80;99.90
57218;DHT22;43078;52.972;6.482;2023-07-28T05:12:46;18.90;99.90
57218;DHT22;43078;52.972;6.482;2023-07-28T05:15:14;18.80;99.90
57218;DHT22;43078;52.972;6.482;2023-07-28T05:17:40;18.80;99.90
57218;DHT22;43078;52.972;6.482;2023-07-28T05:20:06;18.90;99.90
57218;DHT22;43078;52.972;6.482;2023-07-28T05:22:33;18.90;99.90
57218;DHT22;43078;52.972;6.482;2023-07-28T05:24:58;18.90;99.90
57218;DHT22;43078;52.972;6.482;2023-07-28T05:27:24;18.90;99.90
57218;DHT22;43078;52.972;6.482;2023-07-28T05:29:50;18.90;99.90
57218;DHT22;43078;52.972;6.482;2023-07-28T05:32:16;18.90;99.90
57218;DHT22;43078;52.972;6.482;2023-07-28T05:34:44;18.90;99.90
57218;DHT22;43078;52.972;6.482;2023-07-28T05:37:10;18.90;99.90
57218;DHT22;43078;52.972;6.482;2023-07-28T05:39:36;18.90;99.90
57218;DHT22;43078;52.972;6.482;2023-07-28T05:42:02;18.90;99.90
57218;DHT22;43078;52.972;6.482;2023-07-28T05:44:28;18.90;99.90
57218;DHT22;43078;52.972;6.482;2023-07-28T05:46:53;18.90;99.90
57218;DHT22;43078;52.972;6.482;2023-07-28T05:49:19;18.90;99.90
57218;DHT22;43078;52.972;6.482;2023-07-28T05:51:45;18.90;99.90
57218;DHT22;43078;52.972;6.482;2023-07-28T05:54:12;18.90;99.90
57218;DHT22;43078;52.972;6.482;2023-07-28T05:56:40;18.90;99.90
57218;DHT22;43078;52.972;6.482;2023-07-28T05:59:06;19.00;99.90
57218;DHT22;43078;52.972;6.482;2023-07-28T06:01:31;19.00;99.90
57218;DHT22;43078;52.972;6.482;2023-07-28T06:03:58;19.00;99.90
57218;DHT22;43078;52.972;6.482;2023-07-28T06:06:25;19.00;99.90
57218;DHT22;43078;52.972;6.482;2023-07-28T06:08:51;19.00;99.90
57218;DHT22;43078;52.972;6.482;2023-07-28T06:11:17;19.00;99.90
57218;DHT22;43078;52.972;6.482;2023-07-28T06:13:43;19.00;99.90
57218;DHT22;43078;52.972;6.482;2023-07-28T06:16:10;19.10;99.90
57218;DHT22;43078;52.972;6.482;2023-07-28T06:18:36;19.00;99.90
57218;DHT22;43078;52.972;6.482;2023-07-28T06:21:01;19.10;99.90
57218;DHT22;43078;52.972;6.482;2023-07-28T06:23:27;19.10;99.90
57218;DHT22;43078;52.972;6.482;2023-07-28T06:25:53;19.10;99.90
57218;DHT22;43078;52.972;6.482;2023-07-28T06:28:20;19.10;99.90
57218;DHT22;43078;52.972;6.482;2023-07-28T06:30:46;19.10;99.90
57218;DHT22;43078;52.972;6.482;2023-07-28T06:33:11;19.20;99.90
57218;DHT22;43078;52.972;6.482;2023-07-28T06:35:37;19.20;99.90
57218;DHT22;43078;52.972;6.482;2023-07-28T06:38:03;19.20;99.90
57218;DHT22;43078;52.972;6.482;2023-07-28T06:40:29;19.20;99.90
57218;DHT22;43078;52.972;6.482;2023-07-28T06:42:54;19.20;99.90
57218;DHT22;43078;52.972;6.482;2023-07-28T06:45:20;19.20;99.90
57218;DHT22;43078;52.972;6.482;2023-07-28T06:47:46;19.30;99.90
57218;DHT22;43078;52.972;6.482;2023-07-28T06:50:12;19.30;99.90
57218;DHT22;43078;52.972;6.482;2023-07-28T06:52:38;19.30;99.90
57218;DHT22;43078;52.972;6.482;2023-07-28T06:55:03;19.30;99.90
57218;DHT22;43078;52.972;6.482;2023-07-28T06:57:30;19.40;99.90
57218;DHT22;43078;52.972;6.482;2023-07-28T06:59:56;19.40;99.90
57218;DHT22;43078;52.972;6.482;2023-07-28T07:02:22;19.50;99.90
57218;DHT22;43078;52.972;6.482;2023-07-28T07:04:48;19.50;99.90
57218;DHT22;43078;52.972;6.482;2023-07-28T07:07:13;19.50;99.90
57218;DHT22;43078;52.972;6.482;2023-07-28T07:09:39;19.50;99.90
57218;DHT22;43078;52.972;6.482;2023-07-28T07:12:07;19.60;99.90
57218;DHT22;43078;52.972;6.482;2023-07-28T07:14:33;19.60;99.90
57218;DHT22;43078;52.972;6.482;2023-07-28T07:16:59;19.70;99.90
57218;DHT22;43078;52.972;6.482;2023-07-28T07:19:28;19.70;99.90
57218;DHT22;43078;52.972;6.482;2023-07-28T07:21:54;19.80;99.90
57218;DHT22;43078;52.972;6.482;2023-07-28T07:24:20;19.80;99.90
57218;DHT22;43078;52.972;6.482;2023-07-28T07:26:46;19.90;99.90
57218;DHT22;43078;52.972;6.482;2023-07-28T07:29:12;19.90;99.90
57218;DHT22;43078;52.972;6.482;2023-07-28T07:31:41;20.00;99.90
57218;DHT22;43078;52.972;6.482;2023-07-28T07:34:06;20.00;99.90
57218;DHT22;43078;52.972;6.482;2023-07-28T07:36:32;20.10;99.90
57218;DHT22;43078;52.972;6.482;2023-07-28T07:38:58;20.10;99.90
57218;DHT22;43078;52.972;6.482;2023-07-28T07:41:24;20.20;99.90
57218;DHT22;43078;52.972;6.482;2023-07-28T07:43:52;20.20;99.90
57218;DHT22;43078;52.972;6.482;2023-07-28T07:46:18;20.30;99.90
57218;DHT22;43078;52.972;6.482;2023-07-28T07:48:47;20.30;99.90
57218;DHT22;43078;52.972;6.482;2023-07-28T07:51:13;20.40;99.90
57218;DHT22;43078;52.972;6.482;2023-07-28T07:53:39;20.40;99.90
57218;DHT22;43078;52.972;6.482;2023-07-28T07:56:06;20.50;99.90
57218;DHT22;43078;52.972;6.482;2023-07-28T07:58:32;20.60;99.90
57218;DHT22;43078;52.972;6.482;2023-07-28T08:00:58;20.60;99.90
57218;DHT22;43078;52.972;6.482;2023-07-28T08:03:24;20.60;99.90
57218;DHT22;43078;52.972;6.482;2023-07-28T08:05:53;20.70;99.90
57218;DHT22;43078;52.972;6.482;2023-07-28T08:08:19;20.70;99.90
57218;DHT22;43078;52.972;6.482;2023-07-28T08:10:49;20.80;99.90
57218;DHT22;43078;52.972;6.482;2023-07-28T08:13:15;20.80;99.90
57218;DHT22;43078;52.972;6.482;2023-07-28T08:15:43;20.80;99.90
57218;DHT22;43078;52.972;6.482;2023-07-28T08:18:08;20.90;99.90
57218;DHT22;43078;52.972;6.482;2023-07-28T08:20:34;20.90;99.90
57218;DHT22;43078;52.972;6.482;2023-07-28T08:22:59;21.00;99.90
57218;DHT22;43078;52.972;6.482;2023-07-28T08:25:25;21.00;99.90
57218;DHT22;43078;52.972;6.482;2023-07-28T08:27:51;21.10;99.90
57218;DHT22;43078;52.972;6.482;2023-07-28T08:30:16;21.10;99.90
57218;DHT22;43078;52.972;6.482;2023-07-28T08:32:43;21.20;99.90
57218;DHT22;43078;52.972;6.482;2023-07-28T08:35:09;21.30;99.90
57218;DHT22;43078;52.972;6.482;2023-07-28T08:37:35;21.30;99.90
57218;DHT22;43078;52.972;6.482;2023-07-28T08:40:01;21.40;99.90
57218;DHT22;43078;52.972;6.482;2023-07-28T08:42:29;21.50;99.90
57218;DHT22;43078;52.972;6.482;2023-07-28T08:44:55;21.60;99.90
57218;DHT22;43078;52.972;6.482;2023-07-28T08:47:20;21.60;99.90
57218;DHT22;43078;52.972;6.482;2023-07-28T08:49:47;21.70;99.90
57218;DHT22;43078;52.972;6.482;2023-07-28T08:52:16;21.70;99.90
57218;DHT22;43078;52.972;6.482;2023-07-28T08:54:42;21.80;99.90
57218;DHT22;43078;52.972;6.482;2023-07-28T08:57:09;21.80;99.90
57218;DHT22;43078;52.972;6.482;2023-07-28T08:59:35;21.90;99.90
57218;DHT22;43078;52.972;6.482;2023-07-28T09:02:01;21.90;99.90
57218;DHT22;43078;52.972;6.482;2023-07-28T09:04:28;21.90;99.90
57218;DHT22;43078;52.972;6.482;2023-07-28T09:06:53;22.00;99.90
57218;DHT22;43078;52.972;6.482;2023-07-28T09:09:21;22.00;99.90
57218;DHT22;43078;52.972;6.482;2023-07-28T09:11:52;22.00;99.90
57218;DHT22;43078;52.972;6.482;2023-07-28T09:14:19;22.00;99.90
57218;DHT22;43078;52.972;6.482;2023-07-28T09:16:46;22.00;99.90
57218;DHT22;43078;52.972;6.482;2023-07-28T09:19:12;22.00;99.90
57218;DHT22;43078;52.972;6.482;2023-07-28T09:21:42;22.10;99.90
57218;DHT22;43078;52.972;6.482;2023-07-28T09:24:10;22.10;99.90
57218;DHT22;43078;52.972;6.482;2023-07-28T09:26:39;22.10;99.90
57218;DHT22;43078;52.972;6.482;2023-07-28T09:29:17;22.10;99.90
57218;DHT22;43078;52.972;6.482;2023-07-28T09:31:43;22.10;99.90
57218;DHT22;43078;52.972;6.482;2023-07-28T09:34:10;22.20;99.90
57218;DHT22;43078;52.972;6.482;2023-07-28T09:36:36;22.20;99.90
57218;DHT22;43078;52.972;6.482;2023-07-28T09:39:05;22.20;99.90
57218;DHT22;43078;52.972;6.482;2023-07-28T09:41:37;22.20;99.90
57218;DHT22;43078;52.972;6.482;2023-07-28T09:44:05;22.30;99.90
57218;DHT22;43078;52.972;6.482;2023-07-28T09:46:33;22.30;99.90
57218;DHT22;43078;52.972;6.482;2023-07-28T09:49:04;22.30;99.90
57218;DHT22;43078;52.972;6.482;2023-07-28T09:51:31;22.30;99.90
57218;DHT22;43078;52.972;6.482;2023-07-28T09:54:05;22.30;99.80
57218;DHT22;43078;52.972;6.482;2023-07-28T09:56:31;22.30;99.50
57218;DHT22;43078;52.972;6.482;2023-07-28T09:58:59;22.30;99.90
57218;DHT22;43078;52.972;6.482;2023-07-28T10:01:27;22.30;99.80
57218;DHT22;43078;52.972;6.482;2023-07-28T10:03:53;22.30;99.60
57218;DHT22;43078;52.972;6.482;2023-07-28T10:06:20;22.40;99.50
57218;DHT22;43078;52.972;6.482;2023-07-28T10:08:48;22.40;99.60
57218;DHT22;43078;52.972;6.482;2023-07-28T10:11:15;22.40;99.90
57218;DHT22;43078;52.972;6.482;2023-07-28T10:13:43;22.40;99.90
57218;DHT22;43078;52.972;6.482;2023-07-28T10:16:10;22.50;99.80
57218;DHT22;43078;52.972;6.482;2023-07-28T10:18:36;22.60;99.80
57218;DHT22;43078;52.972;6.482;2023-07-28T10:21:07;22.60;99.50
57218;DHT22;43078;52.972;6.482;2023-07-28T10:23:34;22.70;99.20
57218;DHT22;43078;52.972;6.482;2023-07-28T10:26:03;22.70;99.40
57218;DHT22;43078;52.972;6.482;2023-07-28T10:28:36;22.80;99.00
57218;DHT22;43078;52.972;6.482;2023-07-28T10:31:08;22.80;98.90
57218;DHT22;43078;52.972;6.482;2023-07-28T10:33:41;22.90;99.00
57218;DHT22;43078;52.972;6.482;2023-07-28T10:38:49;22.90;98.50
57218;DHT22;43078;52.972;6.482;2023-07-28T10:41:24;23.00;98.70
57218;DHT22;43078;52.972;6.482;2023-07-28T10:43:51;23.10;99.00
57218;DHT22;43078;52.972;6.482;2023-07-28T10:46:18;23.10;98.70
57218;DHT22;43078;52.972;6.482;2023-07-28T10:48:48;23.20;98.80
57218;DHT22;43078;52.972;6.482;2023-07-28T10:51:24;23.20;98.40
57218;DHT22;43078;52.972;6.482;2023-07-28T10:53:52;23.30;98.20
57218;DHT22;43078;52.972;6.482;2023-07-28T10:56:20;23.30;98.50
57218;DHT22;43078;52.972;6.482;2023-07-28T10:58:45;23.40;98.10
57218;DHT22;43078;52.972;6.482;2023-07-28T11:01:11;23.40;97.70
57218;DHT22;43078;52.972;6.482;2023-07-28T11:03:37;23.50;97.80
57218;DHT22;43078;52.972;6.482;2023-07-28T11:06:03;23.60;97.50
57218;DHT22;43078;52.972;6.482;2023-07-28T11:08:29;23.60;97.40
57218;DHT22;43078;52.972;6.482;2023-07-28T11:10:55;23.60;97.50
57218;DHT22;43078;52.972;6.482;2023-07-28T11:13:21;23.70;97.20
57218;DHT22;43078;52.972;6.482;2023-07-28T11:15:47;23.70;97.00
57218;DHT22;43078;52.972;6.482;2023-07-28T11:18:15;23.80;97.00
57218;DHT22;43078;52.972;6.482;2023-07-28T11:20:41;23.90;96.70
57218;DHT22;43078;52.972;6.482;2023-07-28T11:23:07;23.90;96.80
57218;DHT22;43078;52.972;6.482;2023-07-28T11:25:34;23.90;96.50
57218;DHT22;43078;52.972;6.482;2023-07-28T11:28:02;24.00;96.30
57218;DHT22;43078;52.972;6.482;2023-07-28T11:30:31;24.00;96.10
57218;DHT22;43078;52.972;6.482;2023-07-28T11:32:57;24.00;96.20
57218;DHT22;43078;52.972;6.482;2023-07-28T11:35:23;24.00;96.10
57218;DHT22;43078;52.972;6.482;2023-07-28T11:37:51;24.10;96.40
57218;DHT22;43078;52.972;6.482;2023-07-28T11:40:19;24.10;96.00
57218;DHT22;43078;52.972;6.482;2023-07-28T11:42:50;24.10;95.70
57218;DHT22;43078;52.972;6.482;2023-07-28T11:45:17;24.10;95.60
57218;DHT22;43078;52.972;6.482;2023-07-28T11:47:58;24.10;95.50
57218;DHT22;43078;52.972;6.482;2023-07-28T11:50:28;24.10;95.80
57218;DHT22;43078;52.972;6.482;2023-07-28T11:52:56;24.10;95.30
57218;DHT22;43078;52.972;6.482;2023-07-28T11:55:23;24.10;95.70
57218;DHT22;43078;52.972;6.482;2023-07-28T11:57:50;24.10;95.80
57218;DHT22;43078;52.972;6.482;2023-07-28T12:00:16;24.20;95.60
57218;DHT22;43078;52.972;6.482;2023-07-28T12:02:43;24.10;95.50
57218;DHT22;43078;52.972;6.482;2023-07-28T12:05:15;24.20;95.60
57218;DHT22;43078;52.972;6.482;2023-07-28T12:07:46;24.10;95.80
57218;DHT22;43078;52.972;6.482;2023-07-28T12:10:12;24.20;95.90
57218;DHT22;43078;52.972;6.482;2023-07-28T12:12:44;24.20;96.30
57218;DHT22;43078;52.972;6.482;2023-07-28T12:15:25;24.20;96.30
57218;DHT22;43078;52.972;6.482;2023-07-28T12:18:08;24.10;96.10
57218;DHT22;43078;52.972;6.482;2023-07-28T12:20:36;24.20;96.50
57218;DHT22;43078;52.972;6.482;2023-07-28T12:23:02;24.20;96.30
57218;DHT22;43078;52.972;6.482;2023-07-28T12:25:29;24.30;96.30
57218;DHT22;43078;52.972;6.482;2023-07-28T12:27:55;24.30;96.40
57218;DHT22;43078;52.972;6.482;2023-07-28T12:30:21;24.30;96.70
57218;DHT22;43078;52.972;6.482;2023-07-28T12:32:47;24.40;97.10
57218;DHT22;43078;52.972;6.482;2023-07-28T12:35:12;24.40;96.50
57218;DHT22;43078;52.972;6.482;2023-07-28T12:37:38;24.50;96.40
57218;DHT22;43078;52.972;6.482;2023-07-28T12:40:05;24.60;96.50
57218;DHT22;43078;52.972;6.482;2023-07-28T12:42:32;24.60;95.90
57218;DHT22;43078;52.972;6.482;2023-07-28T12:44:57;24.70;95.50
57218;DHT22;43078;52.972;6.482;2023-07-28T12:47:23;24.70;95.30
57218;DHT22;43078;52.972;6.482;2023-07-28T12:49:49;24.70;95.60
57218;DHT22;43078;52.972;6.482;2023-07-28T12:52:15;24.70;95.50
57218;DHT22;43078;52.972;6.482;2023-07-28T12:54:41;24.70;95.50
57218;DHT22;43078;52.972;6.482;2023-07-28T12:57:08;24.70;95.80
57218;DHT22;43078;52.972;6.482;2023-07-28T12:59:36;24.80;96.10
57218;DHT22;43078;52.972;6.482;2023-07-28T13:02:01;24.80;95.80
57218;DHT22;43078;52.972;6.482;2023-07-28T13:04:27;24.90;95.40
57218;DHT22;43078;52.972;6.482;2023-07-28T13:06:53;24.90;95.50
57218;DHT22;43078;52.972;6.482;2023-07-28T13:09:18;24.90;95.10
57218;DHT22;43078;52.972;6.482;2023-07-28T13:11:44;24.90;94.30
57218;DHT22;43078;52.972;6.482;2023-07-28T13:14:09;24.90;94.10
57218;DHT22;43078;52.972;6.482;2023-07-28T13:16:35;24.90;93.90
57218;DHT22;43078;52.972;6.482;2023-07-28T13:19:03;24.90;93.80
57218;DHT22;43078;52.972;6.482;2023-07-28T13:21:29;24.90;94.20
57218;DHT22;43078;52.972;6.482;2023-07-28T13:23:54;24.90;94.20
57218;DHT22;43078;52.972;6.482;2023-07-28T13:26:20;24.90;94.50
57218;DHT22;43078;52.972;6.482;2023-07-28T13:28:46;25.00;95.00
57218;DHT22;43078;52.972;6.482;2023-07-28T13:31:14;24.90;94.10
57218;DHT22;43078;52.972;6.482;2023-07-28T13:33:40;24.90;94.40
57218;DHT22;43078;52.972;6.482;2023-07-28T13:36:06;24.90;94.60
57218;DHT22;43078;52.972;6.482;2023-07-28T13:38:33;24.90;94.90
57218;DHT22;43078;52.972;6.482;2023-07-28T13:40:59;24.90;95.10
57218;DHT22;43078;52.972;6.482;2023-07-28T13:43:25;25.00;95.00
57218;DHT22;43078;52.972;6.482;2023-07-28T13:45:51;25.00;94.60
57218;DHT22;43078;52.972;6.482;2023-07-28T13:48:16;25.00;94.60
57218;DHT22;43078;52.972;6.482;2023-07-28T13:50:42;25.00;94.80
57218;DHT22;43078;52.972;6.482;2023-07-28T13:53:08;25.10;94.20
57218;DHT22;43078;52.972;6.482;2023-07-28T13:55:34;25.10;94.20
57218;DHT22;43078;52.972;6.482;2023-07-28T13:57:59;25.10;94.10
57218;DHT22;43078;52.972;6.482;2023-07-28T14:00:25;25.10;94.10
57218;DHT22;43078;52.972;6.482;2023-07-28T14:02:50;25.10;93.70
57218;DHT22;43078;52.972;6.482;2023-07-28T14:05:16;25.10;93.60
57218;DHT22;43078;52.972;6.482;2023-07-28T14:07:42;25.10;93.50
57218;DHT22;43078;52.972;6.482;2023-07-28T14:10:08;25.10;94.20
57218;DHT22;43078;52.972;6.482;2023-07-28T14:12:34;25.10;93.90
57218;DHT22;43078;52.972;6.482;2023-07-28T14:14:59;25.10;94.40
57218;DHT22;43078;52.972;6.482;2023-07-28T14:17:25;25.10;93.90
57218;DHT22;43078;52.972;6.482;2023-07-28T14:19:50;25.10;93.70
57218;DHT22;43078;52.972;6.482;2023-07-28T14:22:17;25.10;93.60
57218;DHT22;43078;52.972;6.482;2023-07-28T14:24:42;25.10;93.90
57218;DHT22;43078;52.972;6.482;2023-07-28T14:27:08;25.10;93.90
57218;DHT22;43078;52.972;6.482;2023-07-28T14:29:34;25.10;93.70
57218;DHT22;43078;52.972;6.482;2023-07-28T14:31:59;25.10;94.20
57218;DHT22;43078;52.972;6.482;2023-07-28T14:34:25;25.10;94.10
57218;DHT22;43078;52.972;6.482;2023-07-28T14:36:50;25.10;94.30
57218;DHT22;43078;52.972;6.482;2023-07-28T14:39:16;25.10;93.70
57218;DHT22;43078;52.972;6.482;2023-07-28T14:41:42;25.10;93.40
57218;DHT22;43078;52.972;6.482;2023-07-28T14:44:08;25.10;93.50
57218;DHT22;43078;52.972;6.482;2023-07-28T14:46:34;25.20;93.60
57218;DHT22;43078;52.972;6.482;2023-07-28T14:48:59;25.10;94.40
57218;DHT22;43078;52.972;6.482;2023-07-28T14:51:25;25.20;94.30
57218;DHT22;43078;52.972;6.482;2023-07-28T14:53:51;25.20;94.20
57218;DHT22;43078;52.972;6.482;2023-07-28T14:56:17;25.20;93.70
57218;DHT22;43078;52.972;6.482;2023-07-28T14:58:43;25.20;93.60
57218;DHT22;43078;52.972;6.482;2023-07-28T15:01:12;25.30;93.40
57218;DHT22;43078;52.972;6.482;2023-07-28T15:03:38;25.30;94.50
57218;DHT22;43078;52.972;6.482;2023-07-28T15:06:05;25.30;94.20
57218;DHT22;43078;52.972;6.482;2023-07-28T15:08:31;25.30;94.80
57218;DHT22;43078;52.972;6.482;2023-07-28T15:10:58;25.30;94.60
57218;DHT22;43078;52.972;6.482;2023-07-28T15:13:23;25.30;93.70
57218;DHT22;43078;52.972;6.482;2023-07-28T15:15:49;25.30;93.30
57218;DHT22;43078;52.972;6.482;2023-07-28T15:18:15;25.30;93.90
57218;DHT22;43078;52.972;6.482;2023-07-28T15:20:42;25.30;93.90
57218;DHT22;43078;52.972;6.482;2023-07-28T15:23:08;25.30;93.60
57218;DHT22;43078;52.972;6.482;2023-07-28T15:25:34;25.30;93.70
57218;DHT22;43078;52.972;6.482;2023-07-28T15:28:00;25.30;93.60
57218;DHT22;43078;52.972;6.482;2023-07-28T15:30:25;25.30;93.60
57218;DHT22;43078;52.972;6.482;2023-07-28T15:32:51;25.30;94.60